sensor_id;sensor_type;location;lat;lon;timestamp;P1;durP1;ratioP1;P2;durP2;ratioP2
74320;SDS011;62738;45.772;4.804;2023-04-16T00:01:46;5.88;;;2.90;;
74320;SDS011;62738;45.772;4.804;2023-04-16T00:04:13;5.95;;;3.00;;
74320;SDS011;62738;45.772;4.804;2023-04-16T00:06:40;7.47;;;3.20;;
74320;SDS011;62738;45.772;4.804;2023-04-16T00:09:06;5.68;;;2.90;;
74320;SDS011;62738;45.772;4.804;2023-04-16T00:11:33;4.07;;;3.00;;
74320;SDS011;62738;45.772;4.804;2023-04-16T00:14:00;6.32;;;2.70;;
74320;SDS011;62738;45.772;4.804;2023-04-16T00:16:27;4.65;;;2.95;;
74320;SDS011;62738;45.772;4.804;2023-04-16T00:18:53;5.32;;;3.00;;
74320;SDS011;62738;45.772;4.804;2023-04-16T00:21:20;5.40;;;3.40;;
74320;SDS011;62738;45.772;4.804;2023-04-16T00:23:47;7.28;;;3.35;;
74320;SDS011;62738;45.772;4.804;2023-04-16T00:26:13;4.85;;;3.05;;
74320;SDS011;62738;45.772;4.804;2023-04-16T00:28:41;6.50;;;4.00;;
74320;SDS011;62738;45.772;4.804;2023-04-16T00:31:07;5.70;;;3.40;;
74320;SDS011;62738;45.772;4.804;2023-04-16T00:33:34;6.60;;;3.83;;
74320;SDS011;62738;45.772;4.804;2023-04-16T00:36:01;7.35;;;3.55;;
74320;SDS011;62738;45.772;4.804;2023-04-16T00:38:27;7.03;;;3.85;;
74320;SDS011;62738;45.772;4.804;2023-04-16T00:40:55;6.97;;;3.83;;
74320;SDS011;62738;45.772;4.804;2023-04-16T00:43:25;5.35;;;3.88;;
74320;SDS011;62738;45.772;4.804;2023-04-16T00:45:52;7.95;;;4.07;;
74320;SDS011;62738;45.772;4.804;2023-04-16T00:48:22;7.53;;;4.35;;
74320;SDS011;62738;45.772;4.804;2023-04-16T00:50:48;8.35;;;4.43;;
74320;SDS011;62738;45.772;4.804;2023-04-16T00:53:15;6.53;;;3.67;;
74320;SDS011;62738;45.772;4.804;2023-04-16T00:55:42;8.50;;;4.38;;
74320;SDS011;62738;45.772;4.804;2023-04-16T00:58:09;6.65;;;3.97;;
74320;SDS011;62738;45.772;4.804;2023-04-16T01:03:17;5.82;;;4.28;;
74320;SDS011;62738;45.772;4.804;2023-04-16T01:05:44;7.82;;;4.68;;
74320;SDS011;62738;45.772;4.804;2023-04-16T01:08:16;6.60;;;4.53;;
74320;SDS011;62738;45.772;4.804;2023-04-16T01:10:43;7.82;;;4.38;;
74320;SDS011;62738;45.772;4.804;2023-04-16T01:13:10;8.65;;;4.82;;
74320;SDS011;62738;45.772;4.804;2023-04-16T01:15:37;7.22;;;4.72;;
74320;SDS011;62738;45.772;4.804;2023-04-16T01:18:16;7.13;;;4.88;;
74320;SDS011;62738;45.772;4.804;2023-04-16T01:20:46;6.03;;;4.20;;
74320;SDS011;62738;45.772;4.804;2023-04-16T01:23:13;7.63;;;4.68;;
74320;SDS011;62738;45.772;4.804;2023-04-16T01:25:40;6.20;;;4.55;;
74320;SDS011;62738;45.772;4.804;2023-04-16T01:28:07;8.50;;;4.60;;
74320;SDS011;62738;45.772;4.804;2023-04-16T01:30:33;9.93;;;4.60;;
74320;SDS011;62738;45.772;4.804;2023-04-16T01:33:00;7.50;;;5.05;;
74320;SDS011;62738;45.772;4.804;2023-04-16T01:35:27;8.68;;;5.00;;
74320;SDS011;62738;45.772;4.804;2023-04-16T01:37:54;7.75;;;5.18;;
74320;SDS011;62738;45.772;4.804;2023-04-16T01:40:20;7.45;;;5.10;;
74320;SDS011;62738;45.772;4.804;2023-04-16T01:42:47;7.50;;;5.07;;
74320;SDS011;62738;45.772;4.804;2023-04-16T01:45:13;9.45;;;5.20;;
74320;SDS011;62738;45.772;4.804;2023-04-16T01:47:40;8.48;;;5.63;;
74320;SDS011;62738;45.772;4.804;2023-04-16T01:50:08;9.63;;;5.70;;
74320;SDS011;62738;45.772;4.804;2023-04-16T01:52:35;7.63;;;5.18;;
74320;SDS011;62738;45.772;4.804;2023-04-16T01:55:02;7.38;;;5.70;;
74320;SDS011;62738;45.772;4.804;2023-04-16T01:57:29;10.13;;;5.72;;
74320;SDS011;62738;45.772;4.804;2023-04-16T01:59:56;8.50;;;5.90;;
74320;SDS011;62738;45.772;4.804;2023-04-16T02:02:22;8.05;;;5.53;;
74320;SDS011;62738;45.772;4.804;2023-04-16T02:07:20;8.05;;;5.63;;
74320;SDS011;62738;45.772;4.804;2023-04-16T02:09:47;8.73;;;6.07;;
74320;SDS011;62738;45.772;4.804;2023-04-16T02:12:16;10.20;;;6.18;;
74320;SDS011;62738;45.772;4.804;2023-04-16T02:14:43;8.02;;;6.20;;
74320;SDS011;62738;45.772;4.804;2023-04-16T02:17:10;9.20;;;5.80;;
74320;SDS011;62738;45.772;4.804;2023-04-16T02:19:36;10.63;;;6.40;;
74320;SDS011;62738;45.772;4.804;2023-04-16T02:22:03;7.75;;;6.28;;
74320;SDS011;62738;45.772;4.804;2023-04-16T02:24:30;7.88;;;6.03;;
74320;SDS011;62738;45.772;4.804;2023-04-16T02:26:56;8.52;;;5.75;;
74320;SDS011;62738;45.772;4.804;2023-04-16T02:29:23;8.90;;;6.53;;
74320;SDS011;62738;45.772;4.804;2023-04-16T02:31:50;9.30;;;6.07;;
74320;SDS011;62738;45.772;4.804;2023-04-16T02:34:17;9.25;;;6.18;;
74320;SDS011;62738;45.772;4.804;2023-04-16T02:36:43;9.27;;;6.32;;
74320;SDS011;62738;45.772;4.804;2023-04-16T02:39:10;8.27;;;6.50;;
74320;SDS011;62738;45.772;4.804;2023-04-16T02:41:37;13.40;;;7.05;;
74320;SDS011;62738;45.772;4.804;2023-04-16T02:44:03;9.68;;;6.70;;
74320;SDS011;62738;45.772;4.804;2023-04-16T02:46:30;7.53;;;6.47;;
74320;SDS011;62738;45.772;4.804;2023-04-16T02:48:57;9.88;;;6.50;;
74320;SDS011;62738;45.772;4.804;2023-04-16T02:51:24;9.25;;;5.80;;
74320;SDS011;62738;45.772;4.804;2023-04-16T02:53:51;10.90;;;7.28;;
74320;SDS011;62738;45.772;4.804;2023-04-16T02:56:18;9.57;;;7.13;;
74320;SDS011;62738;45.772;4.804;2023-04-16T02:58:44;8.00;;;6.68;;
74320;SDS011;62738;45.772;4.804;2023-04-16T03:01:11;7.75;;;6.95;;
74320;SDS011;62738;45.772;4.804;2023-04-16T03:03:38;10.38;;;6.63;;
74320;SDS011;62738;45.772;4.804;2023-04-16T03:06:04;10.80;;;7.00;;
74320;SDS011;62738;45.772;4.804;2023-04-16T03:08:31;10.63;;;6.38;;
74320;SDS011;62738;45.772;4.804;2023-04-16T03:10:57;11.73;;;7.60;;
74320;SDS011;62738;45.772;4.804;2023-04-16T03:13:24;8.48;;;6.97;;
74320;SDS011;62738;45.772;4.804;2023-04-16T03:15:51;9.43;;;7.60;;
74320;SDS011;62738;45.772;4.804;2023-04-16T03:18:17;9.35;;;7.45;;
74320;SDS011;62738;45.772;4.804;2023-04-16T03:20:44;9.00;;;7.18;;
74320;SDS011;62738;45.772;4.804;2023-04-16T03:23:11;10.20;;;7.70;;
74320;SDS011;62738;45.772;4.804;2023-04-16T03:25:37;12.18;;;7.60;;
74320;SDS011;62738;45.772;4.804;2023-04-16T03:28:05;14.07;;;7.88;;
74320;SDS011;62738;45.772;4.804;2023-04-16T03:30:32;9.25;;;7.50;;
74320;SDS011;62738;45.772;4.804;2023-04-16T03:32:58;10.93;;;8.18;;
74320;SDS011;62738;45.772;4.804;2023-04-16T03:35:25;8.85;;;7.05;;
74320;SDS011;62738;45.772;4.804;2023-04-16T03:37:52;10.00;;;6.75;;
74320;SDS011;62738;45.772;4.804;2023-04-16T03:40:19;9.98;;;7.57;;
74320;SDS011;62738;45.772;4.804;2023-04-16T03:42:45;10.82;;;7.40;;
74320;SDS011;62738;45.772;4.804;2023-04-16T03:45:12;11.05;;;7.70;;
74320;SDS011;62738;45.772;4.804;2023-04-16T03:47:40;9.52;;;7.22;;
74320;SDS011;62738;45.772;4.804;2023-04-16T03:50:07;10.75;;;8.00;;
74320;SDS011;62738;45.772;4.804;2023-04-16T03:52:34;12.05;;;8.07;;
74320;SDS011;62738;45.772;4.804;2023-04-16T03:55:01;11.55;;;7.45;;
74320;SDS011;62738;45.772;4.804;2023-04-16T03:57:29;12.60;;;7.05;;
74320;SDS011;62738;45.772;4.804;2023-04-16T03:59:55;10.73;;;7.30;;
74320;SDS011;62738;45.772;4.804;2023-04-16T04:02:22;8.75;;;7.05;;
74320;SDS011;62738;45.772;4.804;2023-04-16T04:04:49;11.50;;;7.65;;
74320;SDS011;62738;45.772;4.804;2023-04-16T04:07:16;8.73;;;7.05;;
74320;SDS011;62738;45.772;4.804;2023-04-16T04:09:43;10.65;;;6.93;;
74320;SDS011;62738;45.772;4.804;2023-04-16T04:12:09;10.15;;;7.32;;
74320;SDS011;62738;45.772;4.804;2023-04-16T04:14:36;10.75;;;6.80;;
74320;SDS011;62738;45.772;4.804;2023-04-16T04:17:05;9.73;;;7.45;;
74320;SDS011;62738;45.772;4.804;2023-04-16T04:19:32;9.95;;;7.53;;
74320;SDS011;62738;45.772;4.804;2023-04-16T04:21:59;9.20;;;6.88;;
74320;SDS011;62738;45.772;4.804;2023-04-16T04:24:25;9.20;;;7.15;;
74320;SDS011;62738;45.772;4.804;2023-04-16T04:26:52;10.48;;;6.13;;
74320;SDS011;62738;45.772;4.804;2023-04-16T04:29:19;10.80;;;7.30;;
74320;SDS011;62738;45.772;4.804;2023-04-16T04:31:45;9.75;;;7.45;;
74320;SDS011;62738;45.772;4.804;2023-04-16T04:34:12;11.95;;;7.40;;
74320;SDS011;62738;45.772;4.804;2023-04-16T04:36:39;8.45;;;6.60;;
74320;SDS011;62738;45.772;4.804;2023-04-16T04:39:05;10.23;;;7.13;;
74320;SDS011;62738;45.772;4.804;2023-04-16T04:41:32;10.90;;;7.10;;
74320;SDS011;62738;45.772;4.804;2023-04-16T04:43:59;12.35;;;7.22;;
74320;SDS011;62738;45.772;4.804;2023-04-16T04:46:26;9.88;;;7.63;;
74320;SDS011;62738;45.772;4.804;2023-04-16T04:48:52;10.27;;;7.38;;
74320;SDS011;62738;45.772;4.804;2023-04-16T04:51:19;10.52;;;7.28;;
74320;SDS011;62738;45.772;4.804;2023-04-16T04:53:46;9.57;;;7.40;;
74320;SDS011;62738;45.772;4.804;2023-04-16T04:56:13;10.57;;;7.50;;
74320;SDS011;62738;45.772;4.804;2023-04-16T04:58:40;9.63;;;7.13;;
74320;SDS011;62738;45.772;4.804;2023-04-16T05:01:07;8.50;;;6.63;;
74320;SDS011;62738;45.772;4.804;2023-04-16T05:03:33;11.05;;;7.65;;
74320;SDS011;62738;45.772;4.804;2023-04-16T05:06:00;9.60;;;7.65;;
74320;SDS011;62738;45.772;4.804;2023-04-16T05:08:27;11.82;;;6.90;;
74320;SDS011;62738;45.772;4.804;2023-04-16T05:10:53;11.43;;;7.35;;
74320;SDS011;62738;45.772;4.804;2023-04-16T05:13:20;8.88;;;6.85;;
74320;SDS011;62738;45.772;4.804;2023-04-16T05:15:47;9.88;;;7.30;;
74320;SDS011;62738;45.772;4.804;2023-04-16T05:18:13;9.85;;;6.70;;
74320;SDS011;62738;45.772;4.804;2023-04-16T05:20:40;9.02;;;6.38;;
74320;SDS011;62738;45.772;4.804;2023-04-16T05:23:07;11.63;;;6.85;;
74320;SDS011;62738;45.772;4.804;2023-04-16T05:25:34;10.27;;;7.30;;
74320;SDS011;62738;45.772;4.804;2023-04-16T05:28:00;11.05;;;7.05;;
74320;SDS011;62738;45.772;4.804;2023-04-16T05:30:27;9.45;;;6.70;;
74320;SDS011;62738;45.772;4.804;2023-04-16T05:32:54;10.63;;;7.20;;
74320;SDS011;62738;45.772;4.804;2023-04-16T05:35:20;9.93;;;6.70;;
74320;SDS011;62738;45.772;4.804;2023-04-16T05:37:47;12.30;;;7.32;;
74320;SDS011;62738;45.772;4.804;2023-04-16T05:40:14;8.65;;;6.68;;
74320;SDS011;62738;45.772;4.804;2023-04-16T05:42:41;12.48;;;7.28;;
74320;SDS011;62738;45.772;4.804;2023-04-16T05:45:07;10.48;;;7.20;;
74320;SDS011;62738;45.772;4.804;2023-04-16T05:47:34;13.55;;;7.50;;
74320;SDS011;62738;45.772;4.804;2023-04-16T05:50:01;10.57;;;7.60;;
74320;SDS011;62738;45.772;4.804;2023-04-16T05:52:27;11.00;;;7.30;;
74320;SDS011;62738;45.772;4.804;2023-04-16T05:54:54;10.32;;;7.32;;
74320;SDS011;62738;45.772;4.804;2023-04-16T05:57:21;9.85;;;6.60;;
74320;SDS011;62738;45.772;4.804;2023-04-16T05:59:47;13.55;;;7.72;;
74320;SDS011;62738;45.772;4.804;2023-04-16T06:02:14;10.85;;;7.57;;
74320;SDS011;62738;45.772;4.804;2023-04-16T06:04:40;10.93;;;7.70;;
74320;SDS011;62738;45.772;4.804;2023-04-16T06:07:07;11.35;;;7.60;;
74320;SDS011;62738;45.772;4.804;2023-04-16T06:09:34;10.38;;;7.13;;
74320;SDS011;62738;45.772;4.804;2023-04-16T06:12:01;11.57;;;7.82;;
74320;SDS011;62738;45.772;4.804;2023-04-16T06:14:28;11.02;;;7.70;;
74320;SDS011;62738;45.772;4.804;2023-04-16T06:16:54;12.20;;;8.13;;
74320;SDS011;62738;45.772;4.804;2023-04-16T06:19:21;10.45;;;7.93;;
74320;SDS011;62738;45.772;4.804;2023-04-16T06:21:48;11.07;;;8.00;;
74320;SDS011;62738;45.772;4.804;2023-04-16T06:24:15;10.63;;;7.22;;
74320;SDS011;62738;45.772;4.804;2023-04-16T06:26:43;11.50;;;7.80;;
74320;SDS011;62738;45.772;4.804;2023-04-16T06:29:10;10.82;;;7.75;;
74320;SDS011;62738;45.772;4.804;2023-04-16T06:31:37;10.85;;;7.15;;
74320;SDS011;62738;45.772;4.804;2023-04-16T06:34:03;9.98;;;7.30;;
74320;SDS011;62738;45.772;4.804;2023-04-16T06:36:30;9.23;;;7.10;;
74320;SDS011;62738;45.772;4.804;2023-04-16T06:38:57;11.05;;;7.57;;
74320;SDS011;62738;45.772;4.804;2023-04-16T06:41:23;10.23;;;7.45;;
74320;SDS011;62738;45.772;4.804;2023-04-16T06:43:51;11.15;;;7.65;;
74320;SDS011;62738;45.772;4.804;2023-04-16T06:46:18;10.30;;;7.30;;
74320;SDS011;62738;45.772;4.804;2023-04-16T06:48:45;9.95;;;7.22;;
74320;SDS011;62738;45.772;4.804;2023-04-16T06:51:12;11.60;;;6.72;;
74320;SDS011;62738;45.772;4.804;2023-04-16T06:53:38;10.57;;;7.80;;
74320;SDS011;62738;45.772;4.804;2023-04-16T06:56:05;10.82;;;7.63;;
74320;SDS011;62738;45.772;4.804;2023-04-16T06:58:32;11.93;;;7.43;;
74320;SDS011;62738;45.772;4.804;2023-04-16T07:00:58;9.93;;;6.65;;
74320;SDS011;62738;45.772;4.804;2023-04-16T07:03:25;9.63;;;7.10;;
74320;SDS011;62738;45.772;4.804;2023-04-16T07:05:53;9.38;;;6.50;;
74320;SDS011;62738;45.772;4.804;2023-04-16T07:08:19;8.82;;;6.90;;
74320;SDS011;62738;45.772;4.804;2023-04-16T07:10:46;12.77;;;7.30;;
74320;SDS011;62738;45.772;4.804;2023-04-16T07:13:12;13.32;;;7.25;;
74320;SDS011;62738;45.772;4.804;2023-04-16T07:15:40;12.48;;;7.90;;
74320;SDS011;62738;45.772;4.804;2023-04-16T07:18:06;12.02;;;7.30;;
74320;SDS011;62738;45.772;4.804;2023-04-16T07:20:33;12.50;;;6.60;;
74320;SDS011;62738;45.772;4.804;2023-04-16T07:23:01;10.48;;;6.60;;
74320;SDS011;62738;45.772;4.804;2023-04-16T07:25:28;11.77;;;6.68;;
74320;SDS011;62738;45.772;4.804;2023-04-16T07:27:54;10.50;;;7.05;;
74320;SDS011;62738;45.772;4.804;2023-04-16T07:30:21;8.93;;;6.50;;
74320;SDS011;62738;45.772;4.804;2023-04-16T07:32:48;9.15;;;6.40;;
74320;SDS011;62738;45.772;4.804;2023-04-16T07:35:14;8.25;;;6.00;;
74320;SDS011;62738;45.772;4.804;2023-04-16T07:37:41;14.68;;;6.22;;
74320;SDS011;62738;45.772;4.804;2023-04-16T07:40:08;9.40;;;6.38;;
74320;SDS011;62738;45.772;4.804;2023-04-16T07:42:35;10.05;;;5.88;;
74320;SDS011;62738;45.772;4.804;2023-04-16T07:45:01;6.97;;;5.65;;
74320;SDS011;62738;45.772;4.804;2023-04-16T07:47:28;8.15;;;6.20;;
74320;SDS011;62738;45.772;4.804;2023-04-16T07:49:55;7.10;;;5.65;;
74320;SDS011;62738;45.772;4.804;2023-04-16T07:52:21;8.60;;;5.72;;
74320;SDS011;62738;45.772;4.804;2023-04-16T07:54:48;8.75;;;5.60;;
74320;SDS011;62738;45.772;4.804;2023-04-16T07:57:17;10.82;;;6.13;;
74320;SDS011;62738;45.772;4.804;2023-04-16T07:59:43;8.50;;;5.45;;
74320;SDS011;62738;45.772;4.804;2023-04-16T08:02:11;8.38;;;5.05;;
74320;SDS011;62738;45.772;4.804;2023-04-16T08:04:40;8.95;;;5.72;;
74320;SDS011;62738;45.772;4.804;2023-04-16T08:07:08;6.82;;;5.00;;
74320;SDS011;62738;45.772;4.804;2023-04-16T08:09:35;6.45;;;4.32;;
74320;SDS011;62738;45.772;4.804;2023-04-16T08:12:02;7.82;;;5.05;;
74320;SDS011;62738;45.772;4.804;2023-04-16T08:14:29;9.23;;;4.95;;
74320;SDS011;62738;45.772;4.804;2023-04-16T08:16:56;9.38;;;5.25;;
74320;SDS011;62738;45.772;4.804;2023-04-16T08:19:22;9.20;;;5.43;;
74320;SDS011;62738;45.772;4.804;2023-04-16T08:21:49;11.02;;;5.40;;
74320;SDS011;62738;45.772;4.804;2023-04-16T08:24:16;9.48;;;5.30;;
74320;SDS011;62738;45.772;4.804;2023-04-16T08:26:43;7.68;;;5.60;;
74320;SDS011;62738;45.772;4.804;2023-04-16T08:29:09;7.88;;;5.18;;
74320;SDS011;62738;45.772;4.804;2023-04-16T08:31:36;7.30;;;5.05;;
74320;SDS011;62738;45.772;4.804;2023-04-16T08:34:03;6.85;;;5.10;;
74320;SDS011;62738;45.772;4.804;2023-04-16T08:36:30;8.57;;;4.80;;
74320;SDS011;62738;45.772;4.804;2023-04-16T08:38:57;6.60;;;4.43;;
74320;SDS011;62738;45.772;4.804;2023-04-16T08:41:23;9.02;;;5.30;;
74320;SDS011;62738;45.772;4.804;2023-04-16T08:43:54;8.30;;;4.95;;
74320;SDS011;62738;45.772;4.804;2023-04-16T08:46:23;7.57;;;5.18;;
74320;SDS011;62738;45.772;4.804;2023-04-16T08:48:52;5.63;;;4.25;;
74320;SDS011;62738;45.772;4.804;2023-04-16T08:51:21;6.85;;;4.60;;
74320;SDS011;62738;45.772;4.804;2023-04-16T08:53:52;9.73;;;4.72;;
74320;SDS011;62738;45.772;4.804;2023-04-16T08:56:24;7.28;;;4.40;;
74320;SDS011;62738;45.772;4.804;2023-04-16T08:58:52;7.57;;;4.50;;
74320;SDS011;62738;45.772;4.804;2023-04-16T09:01:20;9.02;;;4.88;;
74320;SDS011;62738;45.772;4.804;2023-04-16T09:03:47;8.18;;;4.68;;
74320;SDS011;62738;45.772;4.804;2023-04-16T09:06:14;6.65;;;4.80;;
74320;SDS011;62738;45.772;4.804;2023-04-16T09:08:44;8.63;;;5.05;;
74320;SDS011;62738;45.772;4.804;2023-04-16T09:11:17;6.93;;;5.18;;
74320;SDS011;62738;45.772;4.804;2023-04-16T09:13:45;7.53;;;4.65;;
74320;SDS011;62738;45.772;4.804;2023-04-16T09:16:12;5.55;;;4.13;;
74320;SDS011;62738;45.772;4.804;2023-04-16T09:18:40;6.00;;;4.20;;
74320;SDS011;62738;45.772;4.804;2023-04-16T09:21:08;5.68;;;3.90;;
74320;SDS011;62738;45.772;4.804;2023-04-16T09:23:36;7.63;;;4.07;;
74320;SDS011;62738;45.772;4.804;2023-04-16T09:26:04;7.97;;;3.95;;
74320;SDS011;62738;45.772;4.804;2023-04-16T09:28:41;6.60;;;3.88;;
74320;SDS011;62738;45.772;4.804;2023-04-16T09:31:09;7.18;;;3.70;;
74320;SDS011;62738;45.772;4.804;2023-04-16T09:33:38;7.22;;;3.80;;
74320;SDS011;62738;45.772;4.804;2023-04-16T09:36:04;6.25;;;3.90;;
74320;SDS011;62738;45.772;4.804;2023-04-16T09:38:45;7.90;;;4.22;;
74320;SDS011;62738;45.772;4.804;2023-04-16T09:41:13;6.88;;;4.03;;
74320;SDS011;62738;45.772;4.804;2023-04-16T09:43:53;6.85;;;4.30;;
74320;SDS011;62738;45.772;4.804;2023-04-16T09:46:44;4.68;;;3.60;;
74320;SDS011;62738;45.772;4.804;2023-04-16T09:49:13;4.25;;;3.67;;
74320;SDS011;62738;45.772;4.804;2023-04-16T09:51:42;5.60;;;3.85;;
74320;SDS011;62738;45.772;4.804;2023-04-16T09:54:10;7.30;;;4.00;;
74320;SDS011;62738;45.772;4.804;2023-04-16T09:56:40;6.72;;;3.90;;
74320;SDS011;62738;45.772;4.804;2023-04-16T09:59:21;7.30;;;4.20;;
74320;SDS011;62738;45.772;4.804;2023-04-16T10:01:48;5.65;;;3.78;;
74320;SDS011;62738;45.772;4.804;2023-04-16T10:04:16;5.65;;;3.72;;
74320;SDS011;62738;45.772;4.804;2023-04-16T10:06:43;7.40;;;3.90;;
74320;SDS011;62738;45.772;4.804;2023-04-16T10:09:11;7.13;;;4.20;;
74320;SDS011;62738;45.772;4.804;2023-04-16T10:11:38;6.38;;;3.70;;
74320;SDS011;62738;45.772;4.804;2023-04-16T10:14:04;7.95;;;4.43;;
74320;SDS011;62738;45.772;4.804;2023-04-16T10:16:31;6.75;;;4.03;;
74320;SDS011;62738;45.772;4.804;2023-04-16T10:18:58;6.38;;;4.10;;
74320;SDS011;62738;45.772;4.804;2023-04-16T10:21:25;6.78;;;3.88;;
74320;SDS011;62738;45.772;4.804;2023-04-16T10:23:59;6.82;;;3.67;;
74320;SDS011;62738;45.772;4.804;2023-04-16T10:26:27;5.40;;;3.97;;
74320;SDS011;62738;45.772;4.804;2023-04-16T10:28:55;7.30;;;3.88;;
74320;SDS011;62738;45.772;4.804;2023-04-16T10:31:23;7.30;;;3.88;;
74320;SDS011;62738;45.772;4.804;2023-04-16T10:33:52;5.28;;;3.97;;
74320;SDS011;62738;45.772;4.804;2023-04-16T10:36:22;7.72;;;3.95;;
74320;SDS011;62738;45.772;4.804;2023-04-16T10:38:50;7.28;;;4.47;;
74320;SDS011;62738;45.772;4.804;2023-04-16T10:41:20;6.90;;;4.03;;
74320;SDS011;62738;45.772;4.804;2023-04-16T10:43:48;7.35;;;3.70;;
74320;SDS011;62738;45.772;4.804;2023-04-16T10:46:20;6.63;;;3.78;;
74320;SDS011;62738;45.772;4.804;2023-04-16T10:48:49;6.40;;;3.83;;
74320;SDS011;62738;45.772;4.804;2023-04-16T10:51:26;6.80;;;4.20;;
74320;SDS011;62738;45.772;4.804;2023-04-16T10:53:55;7.32;;;5.15;;
74320;SDS011;62738;45.772;4.804;2023-04-16T10:56:23;7.28;;;4.57;;
74320;SDS011;62738;45.772;4.804;2023-04-16T10:58:52;8.98;;;5.00;;
74320;SDS011;62738;45.772;4.804;2023-04-16T11:01:43;8.52;;;5.30;;
74320;SDS011;62738;45.772;4.804;2023-04-16T11:07:10;7.70;;;5.53;;
74320;SDS011;62738;45.772;4.804;2023-04-16T11:09:57;9.68;;;6.00;;
74320;SDS011;62738;45.772;4.804;2023-04-16T11:12:38;8.38;;;5.40;;
74320;SDS011;62738;45.772;4.804;2023-04-16T11:15:15;7.30;;;5.25;;
74320;SDS011;62738;45.772;4.804;2023-04-16T11:20:16;8.10;;;5.38;;
74320;SDS011;62738;45.772;4.804;2023-04-16T11:22:49;11.98;;;6.05;;
74320;SDS011;62738;45.772;4.804;2023-04-16T11:25:23;7.95;;;5.65;;
74320;SDS011;62738;45.772;4.804;2023-04-16T11:27:52;7.53;;;5.50;;
74320;SDS011;62738;45.772;4.804;2023-04-16T11:30:27;8.43;;;5.38;;
74320;SDS011;62738;45.772;4.804;2023-04-16T11:32:54;9.35;;;5.93;;
74320;SDS011;62738;45.772;4.804;2023-04-16T11:35:21;13.27;;;6.97;;
74320;SDS011;62738;45.772;4.804;2023-04-16T11:37:48;7.72;;;6.07;;
74320;SDS011;62738;45.772;4.804;2023-04-16T11:40:15;9.85;;;6.30;;
74320;SDS011;62738;45.772;4.804;2023-04-16T11:42:41;9.80;;;5.88;;
74320;SDS011;62738;45.772;4.804;2023-04-16T11:45:10;8.07;;;6.32;;
74320;SDS011;62738;45.772;4.804;2023-04-16T11:47:47;9.45;;;6.55;;
74320;SDS011;62738;45.772;4.804;2023-04-16T11:50:24;9.40;;;6.70;;
74320;SDS011;62738;45.772;4.804;2023-04-16T11:52:56;10.45;;;6.70;;
74320;SDS011;62738;45.772;4.804;2023-04-16T11:55:28;11.05;;;5.65;;
74320;SDS011;62738;45.772;4.804;2023-04-16T11:57:55;9.02;;;5.97;;
74320;SDS011;62738;45.772;4.804;2023-04-16T12:00:22;11.07;;;7.03;;
74320;SDS011;62738;45.772;4.804;2023-04-16T12:02:53;7.50;;;5.65;;
74320;SDS011;62738;45.772;4.804;2023-04-16T12:05:34;8.38;;;6.03;;
74320;SDS011;62738;45.772;4.804;2023-04-16T12:08:05;9.10;;;6.32;;
74320;SDS011;62738;45.772;4.804;2023-04-16T12:10:34;10.35;;;6.53;;
74320;SDS011;62738;45.772;4.804;2023-04-16T12:13:12;9.60;;;6.28;;
74320;SDS011;62738;45.772;4.804;2023-04-16T12:15:44;9.38;;;6.68;;
74320;SDS011;62738;45.772;4.804;2023-04-16T12:18:11;8.65;;;5.97;;
74320;SDS011;62738;45.772;4.804;2023-04-16T12:20:39;9.05;;;6.65;;
74320;SDS011;62738;45.772;4.804;2023-04-16T12:23:31;9.10;;;6.68;;
74320;SDS011;62738;45.772;4.804;2023-04-16T12:25:58;12.13;;;6.53;;
74320;SDS011;62738;45.772;4.804;2023-04-16T12:28:36;13.90;;;6.70;;
74320;SDS011;62738;45.772;4.804;2023-04-16T12:31:04;9.75;;;7.53;;
74320;SDS011;62738;45.772;4.804;2023-04-16T12:33:31;9.10;;;6.65;;
74320;SDS011;62738;45.772;4.804;2023-04-16T12:35:57;9.57;;;6.38;;
74320;SDS011;62738;45.772;4.804;2023-04-16T12:38:25;10.38;;;6.03;;
74320;SDS011;62738;45.772;4.804;2023-04-16T12:40:52;12.32;;;6.20;;
74320;SDS011;62738;45.772;4.804;2023-04-16T12:43:22;9.00;;;6.97;;
74320;SDS011;62738;45.772;4.804;2023-04-16T12:45:49;11.50;;;6.50;;
74320;SDS011;62738;45.772;4.804;2023-04-16T12:48:16;7.50;;;5.85;;
74320;SDS011;62738;45.772;4.804;2023-04-16T12:50:42;10.63;;;6.70;;
74320;SDS011;62738;45.772;4.804;2023-04-16T12:53:10;9.48;;;6.20;;
74320;SDS011;62738;45.772;4.804;2023-04-16T12:55:37;8.23;;;5.93;;
74320;SDS011;62738;45.772;4.804;2023-04-16T12:58:03;8.82;;;6.70;;
74320;SDS011;62738;45.772;4.804;2023-04-16T13:00:30;9.23;;;6.43;;
74320;SDS011;62738;45.772;4.804;2023-04-16T13:02:57;8.43;;;6.50;;
74320;SDS011;62738;45.772;4.804;2023-04-16T13:05:24;10.63;;;6.68;;
74320;SDS011;62738;45.772;4.804;2023-04-16T13:07:50;8.77;;;6.68;;
74320;SDS011;62738;45.772;4.804;2023-04-16T13:10:19;12.25;;;7.03;;
74320;SDS011;62738;45.772;4.804;2023-04-16T13:12:46;11.48;;;5.95;;
74320;SDS011;62738;45.772;4.804;2023-04-16T13:15:14;10.48;;;7.60;;
74320;SDS011;62738;45.772;4.804;2023-04-16T13:17:41;9.70;;;6.82;;
74320;SDS011;62738;45.772;4.804;2023-04-16T13:20:07;11.02;;;7.15;;
74320;SDS011;62738;45.772;4.804;2023-04-16T13:22:35;9.88;;;6.60;;
74320;SDS011;62738;45.772;4.804;2023-04-16T13:25:01;11.88;;;7.25;;
74320;SDS011;62738;45.772;4.804;2023-04-16T13:27:28;11.43;;;6.80;;
74320;SDS011;62738;45.772;4.804;2023-04-16T13:29:57;10.52;;;6.30;;
74320;SDS011;62738;45.772;4.804;2023-04-16T13:32:23;11.25;;;7.20;;
74320;SDS011;62738;45.772;4.804;2023-04-16T13:34:50;9.95;;;6.97;;
74320;SDS011;62738;45.772;4.804;2023-04-16T13:37:16;10.57;;;7.13;;
74320;SDS011;62738;45.772;4.804;2023-04-16T13:39:43;9.57;;;6.28;;
74320;SDS011;62738;45.772;4.804;2023-04-16T13:42:10;9.60;;;6.70;;
74320;SDS011;62738;45.772;4.804;2023-04-16T13:44:37;11.18;;;6.65;;
74320;SDS011;62738;45.772;4.804;2023-04-16T13:47:03;10.52;;;6.45;;
74320;SDS011;62738;45.772;4.804;2023-04-16T13:49:32;8.95;;;6.28;;
74320;SDS011;62738;45.772;4.804;2023-04-16T13:52:01;11.75;;;7.00;;
74320;SDS011;62738;45.772;4.804;2023-04-16T13:54:28;10.13;;;7.25;;
74320;SDS011;62738;45.772;4.804;2023-04-16T13:56:55;11.20;;;6.97;;
74320;SDS011;62738;45.772;4.804;2023-04-16T13:59:21;9.50;;;6.30;;
74320;SDS011;62738;45.772;4.804;2023-04-16T14:01:48;12.38;;;7.13;;
74320;SDS011;62738;45.772;4.804;2023-04-16T14:04:15;8.63;;;6.28;;
74320;SDS011;62738;45.772;4.804;2023-04-16T14:06:42;8.27;;;6.30;;
74320;SDS011;62738;45.772;4.804;2023-04-16T14:09:08;8.48;;;6.47;;
74320;SDS011;62738;45.772;4.804;2023-04-16T14:11:36;9.55;;;6.38;;
74320;SDS011;62738;45.772;4.804;2023-04-16T14:14:03;10.45;;;6.97;;
74320;SDS011;62738;45.772;4.804;2023-04-16T14:16:30;10.20;;;6.15;;
74320;SDS011;62738;45.772;4.804;2023-04-16T14:18:56;9.93;;;6.53;;
74320;SDS011;62738;45.772;4.804;2023-04-16T14:21:23;10.43;;;6.82;;
74320;SDS011;62738;45.772;4.804;2023-04-16T14:23:49;9.90;;;7.00;;
74320;SDS011;62738;45.772;4.804;2023-04-16T14:26:16;9.95;;;6.82;;
74320;SDS011;62738;45.772;4.804;2023-04-16T14:28:43;8.45;;;6.20;;
74320;SDS011;62738;45.772;4.804;2023-04-16T14:31:09;11.18;;;6.22;;
74320;SDS011;62738;45.772;4.804;2023-04-16T14:33:36;10.38;;;7.20;;
74320;SDS011;62738;45.772;4.804;2023-04-16T14:36:03;9.05;;;6.25;;
74320;SDS011;62738;45.772;4.804;2023-04-16T14:38:30;9.68;;;6.18;;
74320;SDS011;62738;45.772;4.804;2023-04-16T14:40:57;10.23;;;6.53;;
74320;SDS011;62738;45.772;4.804;2023-04-16T14:43:25;8.80;;;6.72;;
74320;SDS011;62738;45.772;4.804;2023-04-16T14:45:52;10.73;;;6.60;;
74320;SDS011;62738;45.772;4.804;2023-04-16T14:48:19;13.38;;;6.88;;
74320;SDS011;62738;45.772;4.804;2023-04-16T14:50:46;12.85;;;6.78;;
74320;SDS011;62738;45.772;4.804;2023-04-16T14:53:12;9.93;;;7.22;;
74320;SDS011;62738;45.772;4.804;2023-04-16T14:55:39;8.77;;;6.63;;
74320;SDS011;62738;45.772;4.804;2023-04-16T14:58:06;8.85;;;6.53;;